Time;durP1;ratioP1;P1;durP2;ratioP2;P2;SDS_P1;SDS_P2;PMS_P1;PMS_P2;Temp;Humidity;BMP_temperature;BMP_pressure;BME280_temperature;BME280_humidity;BME280_pressure;Samples;Min_cycle;Max_cycle;Signal;HPM_P1;HPM_P2
2022/03/18 00:02:09;;;;;;;6.10;1.85;;;;;;;;;;5052151;28;20641;-72
2022/03/18 00:04:35;;;;;;;5.28;1.80;;;;;;;;;;5069561;28;20506;-72
2022/03/18 00:07:01;;;;;;;5.30;1.90;;;;;;;;;;5068379;28;20049;-72
2022/03/18 00:09:27;;;;;;;5.68;2.13;;;;;;;;;;5053009;28;20071;-72
2022/03/18 00:11:53;;;;;;;7.65;2.13;;;;;;;;;;5069316;28;20620;-71
2022/03/18 00:14:20;;;;;;;5.25;1.90;;;;;;;;;;5069278;28;20043;-72
2022/03/18 00:16:46;;;;;;;5.72;1.77;;;;;;;;;;5068468;28;20036;-71
2022/03/18 00:19:12;;;;;;;6.90;2.08;;;;;;;;;;5069068;28;20394;-72
2022/03/18 00:21:38;;;;;;;6.15;2.13;;;;;;;;;;5067745;28;20041;-72
2022/03/18 00:24:04;;;;;;;5.45;1.88;;;;;;;;;;5068998;28;20555;-71
2022/03/18 00:26:31;;;;;;;7.28;1.90;;;;;;;;;;5068344;28;20082;-72
2022/03/18 00:28:57;;;;;;;6.28;1.90;;;;;;;;;;5068822;28;20060;-72
2022/03/18 00:31:23;;;;;;;5.03;1.73;;;;;;;;;;5068051;28;20635;-72
2022/03/18 00:33:49;;;;;;;6.18;1.92;;;;;;;;;;5068705;28;20049;-72
2022/03/18 00:36:15;;;;;;;5.72;1.70;;;;;;;;;;5067972;28;20036;-72
2022/03/18 00:38:41;;;;;;;5.50;1.65;;;;;;;;;;5052440;28;20047;-71
2022/03/18 00:41:07;;;;;;;5.60;1.67;;;;;;;;;;5067844;28;20500;-72
2022/03/18 00:43:33;;;;;;;6.97;1.92;;;;;;;;;;5068473;28;20048;-72
2022/03/18 00:45:59;;;;;;;6.03;2.08;;;;;;;;;;5068415;28;20048;-71
2022/03/18 00:53:55;;;;;;;5.72;2.08;;;;;;;;;;5066091;28;20131;-72
2022/03/18 00:56:21;;;;;;;5.20;1.77;;;;;;;;;;5064570;28;20049;-72
2022/03/18 00:58:47;;;;;;;5.38;1.92;;;;;;;;;;5065581;28;20123;-72
2022/03/18 01:01:13;;;;;;;6.78;2.10;;;;;;;;;;5064093;28;20040;-72
2022/03/18 01:03:39;;;;;;;4.50;1.70;;;;;;;;;;5065566;28;20600;-72
2022/03/18 01:06:05;;;;;;;5.57;1.73;;;;;;;;;;5064450;28;20036;-72
2022/03/18 01:08:31;;;;;;;7.10;2.00;;;;;;;;;;5065453;28;20049;-73
2022/03/18 01:10:57;;;;;;;4.78;1.70;;;;;;;;;;5065675;28;20044;-72
2022/03/18 01:13:23;;;;;;;6.38;2.05;;;;;;;;;;5064833;28;20041;-73
2022/03/18 01:15:49;;;;;;;6.68;1.88;;;;;;;;;;5065651;28;20044;-72
2022/03/18 01:18:15;;;;;;;5.97;1.70;;;;;;;;;;5064269;28;20048;-72
2022/03/18 01:20:41;;;;;;;5.90;1.60;;;;;;;;;;5048854;28;20037;-73
2022/03/18 01:23:08;;;;;;;5.05;1.70;;;;;;;;;;5047683;28;20040;-73
2022/03/18 01:25:35;;;;;;;6.95;1.90;;;;;;;;;;5065335;28;20044;-73
2022/03/18 01:28:01;;;;;;;6.15;1.73;;;;;;;;;;5063118;28;20083;-73
2022/03/18 01:30:29;;;;;;;5.78;1.85;;;;;;;;;;5064608;28;20133;-73
2022/03/18 01:32:55;;;;;;;5.03;1.85;;;;;;;;;;5046873;28;20119;-73
2022/03/18 01:35:21;;;;;;;6.60;1.83;;;;;;;;;;5045067;28;20159;-73
2022/03/18 01:37:47;;;;;;;6.18;1.85;;;;;;;;;;5043815;28;20037;-73
2022/03/18 01:40:13;;;;;;;5.03;1.77;;;;;;;;;;5044931;28;20044;-72
2022/03/18 01:42:39;;;;;;;5.40;1.63;;;;;;;;;;5057020;28;20043;-73
2022/03/18 01:45:05;;;;;;;7.38;2.30;;;;;;;;;;5066126;28;20041;-72
2022/03/18 01:47:31;;;;;;;6.28;1.80;;;;;;;;;;5063423;28;20066;-73
2022/03/18 01:49:58;;;;;;;6.22;1.90;;;;;;;;;;5066030;28;20608;-73
2022/03/18 01:52:24;;;;;;;5.68;1.73;;;;;;;;;;5063948;28;20037;-73
2022/03/18 01:54:51;;;;;;;5.35;2.00;;;;;;;;;;5064716;28;20044;-72
2022/03/18 01:57:19;;;;;;;6.80;1.88;;;;;;;;;;5047128;28;20036;-72
2022/03/18 01:59:45;;;;;;;5.35;1.67;;;;;;;;;;5047374;28;20028;-72
2022/03/18 02:02:11;;;;;;;6.32;1.90;;;;;;;;;;5047261;28;20063;-72
2022/03/18 02:04:37;;;;;;;6.03;1.83;;;;;;;;;;5048249;28;20072;-72
2022/03/18 02:07:05;;;;;;;5.28;1.70;;;;;;;;;;5062889;28;20101;-72
2022/03/18 02:09:31;;;;;;;6.57;2.22;;;;;;;;;;5047798;28;20620;-72
2022/03/18 02:11:58;;;;;;;5.63;2.05;;;;;;;;;;5036470;28;20052;-72
2022/03/18 02:14:30;;;;;;;5.40;1.90;;;;;;;;;;5035606;28;20040;-72
2022/03/18 02:16:56;;;;;;;5.38;1.70;;;;;;;;;;5050354;28;20482;-72
2022/03/18 02:19:23;;;;;;;5.53;1.85;;;;;;;;;;5062933;28;20047;-72
2022/03/18 02:21:51;;;;;;;7.07;1.92;;;;;;;;;;5062849;28;20040;-72
2022/03/18 02:24:17;;;;;;;5.72;1.92;;;;;;;;;;5063840;28;20036;-72
2022/03/18 02:26:47;;;;;;;7.18;2.13;;;;;;;;;;5062807;28;20044;-72
2022/03/18 02:29:13;;;;;;;7.13;2.28;;;;;;;;;;5063543;28;20049;-72
2022/03/18 02:31:39;;;;;;;5.63;1.80;;;;;;;;;;5046348;28;20532;-72
2022/03/18 02:34:05;;;;;;;5.57;1.83;;;;;;;;;;5063321;28;20670;-72
2022/03/18 02:36:31;;;;;;;7.03;1.85;;;;;;;;;;5062782;28;20048;-72
2022/03/18 02:38:57;;;;;;;5.43;1.85;;;;;;;;;;5063313;28;20048;-72
2022/03/18 02:41:23;;;;;;;5.55;1.90;;;;;;;;;;5062259;28;20040;-72
2022/03/18 02:43:49;;;;;;;5.63;2.30;;;;;;;;;;5063801;28;20076;-72
2022/03/18 02:46:16;;;;;;;5.72;1.77;;;;;;;;;;5061674;28;20044;-72
2022/03/18 02:48:42;;;;;;;6.78;2.17;;;;;;;;;;5063730;28;20048;-72
2022/03/18 02:51:08;;;;;;;5.15;1.90;;;;;;;;;;5062710;28;20483;-72
2022/03/18 02:53:35;;;;;;;5.25;1.92;;;;;;;;;;5046639;28;20052;-72
2022/03/18 02:56:02;;;;;;;7.90;1.83;;;;;;;;;;5062595;28;20177;-71
2022/03/18 02:58:28;;;;;;;6.57;2.03;;;;;;;;;;5063031;28;20048;-72
2022/03/18 03:00:54;;;;;;;5.22;2.00;;;;;;;;;;5063554;28;20036;-71
2022/03/18 03:03:20;;;;;;;5.22;1.80;;;;;;;;;;5045440;28;20048;-72
2022/03/18 03:08:31;;;;;;;;;;;;;;;;;;5063784;28;20098;-72
2022/03/18 03:10:58;;;;;;;6.55;2.03;;;;;;;;;;5062920;28;19955;-71
2022/03/18 03:13:25;;;;;;;4.60;1.75;;;;;;;;;;5046146;28;20502;-72
2022/03/18 03:15:51;;;;;;;5.32;1.80;;;;;;;;;;5046207;28;20044;-72
2022/03/18 03:18:17;;;;;;;5.07;1.73;;;;;;;;;;5062012;28;20095;-72
2022/03/18 03:20:43;;;;;;;4.97;1.70;;;;;;;;;;5063415;28;20040;-72
2022/03/18 03:23:09;;;;;;;5.95;1.80;;;;;;;;;;5061697;28;20146;-72
2022/03/18 03:25:35;;;;;;;4.88;1.60;;;;;;;;;;5063176;28;20072;-72
2022/03/18 03:28:01;;;;;;;5.85;1.73;;;;;;;;;;5045459;28;20053;-72
2022/03/18 03:30:27;;;;;;;5.38;2.20;;;;;;;;;;5063901;28;20052;-72
2022/03/18 03:32:53;;;;;;;6.00;1.98;;;;;;;;;;5060745;28;20037;-72
2022/03/18 03:35:19;;;;;;;6.15;1.88;;;;;;;;;;5045020;28;20056;-72
2022/03/18 03:37:46;;;;;;;6.22;2.33;;;;;;;;;;5044255;28;20544;-72
2022/03/18 03:40:15;;;;;;;5.50;1.75;;;;;;;;;;5061479;28;20087;-73
2022/03/18 03:42:42;;;;;;;4.88;1.73;;;;;;;;;;5060415;28;20474;-72
2022/03/18 03:45:09;;;;;;;6.05;1.80;;;;;;;;;;5060974;28;20567;-72
2022/03/18 03:47:35;;;;;;;4.78;1.70;;;;;;;;;;5059061;28;20041;-71
2022/03/18 03:50:01;;;;;;;5.25;1.95;;;;;;;;;;5061357;28;20044;-72
2022/03/18 03:52:27;;;;;;;5.93;2.00;;;;;;;;;;5043744;28;20047;-72
2022/03/18 03:54:53;;;;;;;6.75;1.73;;;;;;;;;;5061272;28;20123;-72
2022/03/18 03:57:19;;;;;;;6.85;2.15;;;;;;;;;;5060033;28;20040;-72
2022/03/18 03:59:44;;;;;;;5.88;1.75;;;;;;;;;;5045135;28;20040;-73
2022/03/18 04:02:11;;;;;;;5.18;1.77;;;;;;;;;;5060356;28;20433;-72
2022/03/18 04:04:37;;;;;;;5.72;2.00;;;;;;;;;;5061128;28;20609;-72
2022/03/18 04:07:03;;;;;;;5.28;1.85;;;;;;;;;;5063117;28;20075;-72
2022/03/18 04:09:29;;;;;;;7.68;2.10;;;;;;;;;;5062982;28;20037;-72
2022/03/18 04:11:55;;;;;;;5.63;2.10;;;;;;;;;;5061578;28;20052;-72
2022/03/18 04:14:21;;;;;;;7.22;2.10;;;;;;;;;;5062395;28;20041;-73
2022/03/18 04:16:47;;;;;;;5.47;1.77;;;;;;;;;;5060941;28;20084;-72
2022/03/18 04:19:14;;;;;;;5.38;2.00;;;;;;;;;;5062315;28;20039;-73
2022/03/18 04:21:40;;;;;;;6.53;2.13;;;;;;;;;;5060966;28;20035;-73
2022/03/18 04:24:06;;;;;;;5.15;2.05;;;;;;;;;;5064249;28;20080;-72
2022/03/18 04:26:32;;;;;;;5.22;1.90;;;;;;;;;;5061561;28;20119;-72
2022/03/18 04:28:58;;;;;;;5.45;1.73;;;;;;;;;;5045802;28;20045;-72
2022/03/18 04:31:24;;;;;;;7.00;2.05;;;;;;;;;;5048403;28;20055;-73
2022/03/18 04:33:50;;;;;;;6.47;2.05;;;;;;;;;;5067263;28;20041;-72
2022/03/18 04:36:16;;;;;;;6.47;1.98;;;;;;;;;;5065404;28;20047;-72
2022/03/18 04:38:42;;;;;;;7.85;2.33;;;;;;;;;;5066114;28;20123;-72
2022/03/18 04:41:08;;;;;;;5.78;1.80;;;;;;;;;;5064969;28;20124;-73
2022/03/18 04:43:34;;;;;;;6.90;1.60;;;;;;;;;;5066033;28;20091;-72
2022/03/18 04:46:00;;;;;;;6.03;1.95;;;;;;;;;;5065485;28;20220;-72
2022/03/18 04:48:26;;;;;;;5.53;1.85;;;;;;;;;;5065275;28;20051;-73
2022/03/18 04:50:52;;;;;;;5.72;1.90;;;;;;;;;;5065949;28;20125;-72
2022/03/18 04:53:18;;;;;;;4.97;1.73;;;;;;;;;;5064778;28;20076;-72
2022/03/18 04:55:50;;;;;;;5.57;1.88;;;;;;;;;;5066095;28;20044;-73
2022/03/18 04:58:16;;;;;;;5.63;1.67;;;;;;;;;;5064689;28;20478;-71
2022/03/18 05:00:42;;;;;;;6.47;2.10;;;;;;;;;;5049006;28;20043;-72
2022/03/18 05:03:10;;;;;;;5.32;1.75;;;;;;;;;;5047943;28;20067;-72
2022/03/18 05:05:37;;;;;;;6.68;2.13;;;;;;;;;;5049122;28;20132;-72
2022/03/18 05:08:03;;;;;;;6.10;1.90;;;;;;;;;;5064719;28;20041;-72
2022/03/18 05:10:29;;;;;;;6.75;2.22;;;;;;;;;;5065822;28;20102;-72
2022/03/18 05:12:55;;;;;;;7.38;2.00;;;;;;;;;;5047719;28;20106;-72
2022/03/18 05:15:22;;;;;;;7.13;1.95;;;;;;;;;;5048222;28;20052;-73
2022/03/18 05:17:51;;;;;;;5.93;1.88;;;;;;;;;;5061938;28;20040;-72
2022/03/18 05:20:18;;;;;;;6.18;1.90;;;;;;;;;;5065305;28;20040;-72
2022/03/18 05:22:45;;;;;;;7.85;1.90;;;;;;;;;;5063870;28;20110;-72
2022/03/18 05:25:11;;;;;;;6.85;2.33;;;;;;;;;;5065857;28;20080;-72
2022/03/18 05:27:41;;;;;;;5.35;1.90;;;;;;;;;;5047448;28;20048;-72
2022/03/18 05:30:09;;;;;;;7.22;2.15;;;;;;;;;;5065393;28;20044;-72
2022/03/18 05:32:36;;;;;;;5.93;1.75;;;;;;;;;;5063452;28;20052;-72
2022/03/18 05:35:02;;;;;;;5.40;1.73;;;;;;;;;;5047743;28;20144;-73
2022/03/18 05:37:28;;;;;;;5.53;1.80;;;;;;;;;;5063474;28;20045;-72
2022/03/18 05:39:54;;;;;;;6.28;1.73;;;;;;;;;;5065097;28;20032;-72
2022/03/18 05:42:20;;;;;;;7.20;1.92;;;;;;;;;;5063796;28;20128;-72
2022/03/18 05:44:46;;;;;;;4.90;1.80;;;;;;;;;;5066505;28;20048;-72
2022/03/18 05:47:12;;;;;;;5.82;2.05;;;;;;;;;;5060954;28;20634;-73
2022/03/18 05:49:38;;;;;;;5.72;2.08;;;;;;;;;;5064823;28;20048;-72
2022/03/18 05:52:04;;;;;;;5.15;1.80;;;;;;;;;;5064955;28;20041;-72
2022/03/18 05:54:30;;;;;;;6.18;1.70;;;;;;;;;;5048567;28;20063;-72
2022/03/18 05:56:56;;;;;;;4.85;1.73;;;;;;;;;;5063869;28;20067;-72
2022/03/18 05:59:23;;;;;;;6.72;2.00;;;;;;;;;;5065203;28;20047;-72
2022/03/18 06:01:49;;;;;;;5.28;1.98;;;;;;;;;;5064317;28;20041;-72
2022/03/18 06:04:15;;;;;;;6.22;2.10;;;;;;;;;;5064800;28;20044;-73
2022/03/18 06:06:42;;;;;;;8.00;2.10;;;;;;;;;;5063394;28;20067;-72
2022/03/18 06:11:53;;;;;;;5.95;2.17;;;;;;;;;;5061837;28;20040;-72
2022/03/18 06:14:20;;;;;;;5.43;1.83;;;;;;;;;;5064169;28;20616;-72
2022/03/18 06:16:47;;;;;;;5.38;1.85;;;;;;;;;;5062511;28;20133;-72
2022/03/18 06:19:14;;;;;;;5.93;2.13;;;;;;;;;;5064275;28;20124;-72
2022/03/18 06:21:41;;;;;;;6.07;2.08;;;;;;;;;;5062498;28;20046;-73
2022/03/18 06:24:09;;;;;;;5.18;2.00;;;;;;;;;;5047433;28;20076;-72
2022/03/18 06:26:35;;;;;;;6.50;2.30;;;;;;;;;;5063133;28;20098;-72
2022/03/18 06:29:01;;;;;;;6.18;1.88;;;;;;;;;;5046984;28;20147;-72
2022/03/18 06:31:27;;;;;;;5.70;2.00;;;;;;;;;;5053160;28;20102;-72
2022/03/18 06:33:53;;;;;;;7.07;2.10;;;;;;;;;;5023047;28;20049;-72
2022/03/18 06:36:19;;;;;;;5.10;1.73;;;;;;;;;;5048351;28;20041;-72
2022/03/18 06:38:45;;;;;;;5.10;1.90;;;;;;;;;;5043170;28;20039;-72
2022/03/18 06:41:11;;;;;;;5.68;2.08;;;;;;;;;;5044878;28;20048;-72
2022/03/18 06:43:37;;;;;;;5.45;1.70;;;;;;;;;;5063703;28;20048;-73
2022/03/18 06:46:03;;;;;;;5.53;1.92;;;;;;;;;;5057946;28;20106;-72
2022/03/18 06:48:29;;;;;;;6.20;1.92;;;;;;;;;;5046024;28;20587;-73
2022/03/18 06:50:55;;;;;;;5.25;2.00;;;;;;;;;;5043739;28;20045;-72
2022/03/18 06:53:21;;;;;;;6.65;1.95;;;;;;;;;;5062068;28;20093;-72
2022/03/18 06:55:47;;;;;;;6.30;2.28;;;;;;;;;;5064119;28;20589;-72
2022/03/18 06:58:13;;;;;;;6.05;2.13;;;;;;;;;;5062179;28;20041;-72
2022/03/18 07:00:39;;;;;;;7.70;2.83;;;;;;;;;;5046628;28;20065;-72
2022/03/18 07:03:06;;;;;;;9.25;2.85;;;;;;;;;;5061780;28;20105;-71
2022/03/18 07:05:32;;;;;;;10.00;2.90;;;;;;;;;;5063404;28;20772;-71
2022/03/18 07:07:58;;;;;;;8.98;2.50;;;;;;;;;;5061019;28;20040;-71
2022/03/18 07:10:24;;;;;;;5.85;2.30;;;;;;;;;;5028551;28;20627;-71
2022/03/18 07:12:50;;;;;;;7.97;2.75;;;;;;;;;;5035925;28;20044;-71
2022/03/18 07:15:17;;;;;;;9.02;3.13;;;;;;;;;;5060736;28;20055;-71
2022/03/18 07:17:55;;;;;;;8.38;2.60;;;;;;;;;;5060970;28;20069;-71
2022/03/18 07:20:22;;;;;;;6.97;2.92;;;;;;;;;;5063467;28;20044;-71
2022/03/18 07:22:59;;;;;;;6.75;2.65;;;;;;;;;;5062260;28;20048;-71
2022/03/18 07:25:24;;;;;;;7.80;2.45;;;;;;;;;;5063939;28;20201;-71
2022/03/18 07:27:50;;;;;;;9.18;2.88;;;;;;;;;;5062245;28;20548;-72
2022/03/18 07:30:16;;;;;;;8.50;2.70;;;;;;;;;;5062826;28;20052;-69
2022/03/18 07:32:43;;;;;;;7.13;2.70;;;;;;;;;;5061024;28;20043;-70
2022/03/18 07:35:10;;;;;;;8.73;2.25;;;;;;;;;;5063182;28;20041;-70
2022/03/18 07:37:36;;;;;;;9.65;2.58;;;;;;;;;;5061334;28;20074;-69
2022/03/18 07:40:02;;;;;;;6.28;2.30;;;;;;;;;;5063717;28;20127;-70
2022/03/18 07:42:28;;;;;;;7.47;2.75;;;;;;;;;;5061145;28;20052;-70
2022/03/18 07:44:54;;;;;;;7.65;2.65;;;;;;;;;;5062963;28;20040;-69
2022/03/18 07:47:20;;;;;;;8.05;2.20;;;;;;;;;;5060846;28;20131;-69
2022/03/18 07:49:46;;;;;;;7.80;2.53;;;;;;;;;;5062720;28;20039;-70
2022/03/18 07:52:12;;;;;;;6.47;2.83;;;;;;;;;;5061759;28;20059;-68
2022/03/18 07:54:39;;;;;;;6.82;2.50;;;;;;;;;;5062933;28;20120;-69
2022/03/18 07:57:05;;;;;;;7.50;2.30;;;;;;;;;;5061875;28;20072;-69
2022/03/18 07:59:31;;;;;;;7.47;2.45;;;;;;;;;;5066935;28;20079;-69
2022/03/18 08:01:57;;;;;;;7.55;2.78;;;;;;;;;;5058029;28;20045;-69
2022/03/18 08:04:22;;;;;;;8.50;2.70;;;;;;;;;;5047599;28;20083;-69
2022/03/18 08:06:49;;;;;;;6.78;2.58;;;;;;;;;;5052518;28;20040;-70
2022/03/18 08:09:14;;;;;;;6.22;2.35;;;;;;;;;;5066192;28;20531;-69
2022/03/18 08:11:41;;;;;;;8.05;2.10;;;;;;;;;;5065412;28;20048;-69
2022/03/18 08:14:07;;;;;;;6.43;2.35;;;;;;;;;;5066421;28;20123;-69
2022/03/18 08:16:33;;;;;;;6.88;2.63;;;;;;;;;;5064922;28;20166;-70
2022/03/18 08:18:59;;;;;;;7.90;2.85;;;;;;;;;;5065893;28;20041;-69
2022/03/18 08:21:25;;;;;;;8.70;3.53;;;;;;;;;;5064540;28;20033;-70
2022/03/18 08:23:51;;;;;;;6.95;2.72;;;;;;;;;;5065298;28;20041;-69
2022/03/18 08:26:17;;;;;;;7.80;2.65;;;;;;;;;;5065420;28;20040;-69
2022/03/18 08:28:43;;;;;;;6.53;2.38;;;;;;;;;;5066080;28;20063;-70
2022/03/18 08:31:09;;;;;;;8.30;2.63;;;;;;;;;;5064841;28;20140;-69
2022/03/18 08:33:35;;;;;;;6.43;2.33;;;;;;;;;;5065698;28;20033;-69
2022/03/18 08:36:01;;;;;;;6.28;2.40;;;;;;;;;;5065209;28;20048;-69
2022/03/18 08:38:27;;;;;;;6.60;2.17;;;;;;;;;;5065723;28;20599;-69
2022/03/18 08:40:53;;;;;;;6.78;2.25;;;;;;;;;;5066610;28;20032;-69
2022/03/18 08:43:19;;;;;;;6.43;2.20;;;;;;;;;;5064573;28;20048;-69
2022/03/18 08:45:45;;;;;;;6.50;2.40;;;;;;;;;;5066159;28;20052;-70
2022/03/18 08:48:11;;;;;;;5.45;1.80;;;;;;;;;;5047949;28;20572;-68
2022/03/18 08:50:37;;;;;;;6.57;2.10;;;;;;;;;;5066231;28;20060;-69
2022/03/18 08:53:09;;;;;;;7.95;2.05;;;;;;;;;;5064933;28;20040;-70
2022/03/18 08:55:36;;;;;;;8.50;2.22;;;;;;;;;;5049860;28;20075;-70
2022/03/18 08:58:02;;;;;;;5.13;2.00;;;;;;;;;;5064045;28;20123;-70
2022/03/18 09:00:29;;;;;;;8.15;2.30;;;;;;;;;;5064519;28;20600;-69
2022/03/18 09:02:55;;;;;;;8.15;2.15;;;;;;;;;;5061977;28;20048;-68
2022/03/18 09:05:21;;;;;;;5.53;2.15;;;;;;;;;;5066530;28;20105;-70
2022/03/18 09:07:47;;;;;;;5.97;2.03;;;;;;;;;;5067115;28;20435;-69
2022/03/18 09:10:14;;;;;;;5.28;2.10;;;;;;;;;;5068383;28;20040;-69
2022/03/18 09:12:52;;;;;;;7.28;2.17;;;;;;;;;;5068297;28;20145;-70
2022/03/18 09:15:18;;;;;;;7.60;2.58;;;;;;;;;;5069104;28;20052;-69
2022/03/18 09:17:44;;;;;;;5.28;1.98;;;;;;;;;;5052565;28;20487;-69
2022/03/18 09:20:11;;;;;;;7.55;2.17;;;;;;;;;;5040388;28;20044;-70
2022/03/18 09:22:37;;;;;;;6.30;1.83;;;;;;;;;;5057556;28;20093;-70
2022/03/18 09:25:03;;;;;;;8.63;2.33;;;;;;;;;;5048332;28;20136;-69
2022/03/18 09:27:29;;;;;;;7.20;2.10;;;;;;;;;;5063180;28;20043;-69
2022/03/18 09:29:56;;;;;;;5.28;1.90;;;;;;;;;;5048834;28;20087;-69
2022/03/18 09:32:22;;;;;;;6.97;2.20;;;;;;;;;;5064209;28;20127;-69
2022/03/18 09:34:48;;;;;;;6.57;2.05;;;;;;;;;;5065203;28;20694;-69
2022/03/18 09:37:14;;;;;;;7.53;1.92;;;;;;;;;;5064084;28;20135;-69
2022/03/18 09:39:40;;;;;;;5.53;1.90;;;;;;;;;;5065153;28;20037;-69
2022/03/18 09:42:07;;;;;;;7.22;2.13;;;;;;;;;;5064068;28;20036;-69
2022/03/18 09:44:36;;;;;;;7.85;2.20;;;;;;;;;;5065933;28;20667;-69
2022/03/18 09:47:03;;;;;;;7.10;2.22;;;;;;;;;;5062996;28;20040;-69
2022/03/18 09:49:29;;;;;;;8.07;2.10;;;;;;;;;;5064677;28;20055;-69
2022/03/18 09:51:56;;;;;;;7.90;2.00;;;;;;;;;;5056271;28;20048;-69
2022/03/18 09:54:22;;;;;;;7.30;2.15;;;;;;;;;;5044723;28;20033;-69
2022/03/18 09:56:48;;;;;;;6.70;1.92;;;;;;;;;;5050249;28;20044;-69
2022/03/18 09:59:15;;;;;;;6.38;1.80;;;;;;;;;;5064397;28;20068;-69
2022/03/18 10:01:41;;;;;;;4.80;1.90;;;;;;;;;;5063018;28;20094;-69
2022/03/18 10:04:10;;;;;;;7.28;1.90;;;;;;;;;;5064967;28;20102;-69
2022/03/18 10:06:36;;;;;;;6.13;1.85;;;;;;;;;;5062885;28;20052;-69
2022/03/18 10:09:02;;;;;;;6.93;2.17;;;;;;;;;;5065689;28;20042;-70
2022/03/18 10:11:33;;;;;;;5.93;1.80;;;;;;;;;;5063297;28;20449;-69
2022/03/18 10:14:07;;;;;;;7.18;1.70;;;;;;;;;;5064218;28;20048;-70
2022/03/18 10:16:33;;;;;;;6.70;1.60;;;;;;;;;;5062316;28;20044;-69
2022/03/18 10:18:59;;;;;;;5.00;1.63;;;;;;;;;;5062994;28;20044;-69
2022/03/18 10:21:25;;;;;;;6.63;1.85;;;;;;;;;;5062550;28;20105;-69
2022/03/18 10:24:03;;;;;;;6.50;1.73;;;;;;;;;;5063585;28;20068;-69
2022/03/18 10:26:29;;;;;;;7.40;2.22;;;;;;;;;;5063458;28;20041;-70
2022/03/18 10:29:00;;;;;;;6.05;2.00;;;;;;;;;;5063833;28;20057;-70
2022/03/18 10:31:27;;;;;;;6.22;1.80;;;;;;;;;;5063118;28;20159;-70
2022/03/18 10:39:23;;;;;;;;;;;;;;;;;;5064417;28;20048;-69
2022/03/18 10:41:49;;;;;;;6.65;2.20;;;;;;;;;;5062343;28;20395;-70
2022/03/18 10:44:18;;;;;;;5.90;1.90;;;;;;;;;;5047293;28;20076;-70
2022/03/18 10:46:44;;;;;;;7.28;2.10;;;;;;;;;;5063722;28;20051;-70
2022/03/18 10:49:10;;;;;;;7.30;2.05;;;;;;;;;;5063526;28;20040;-70
2022/03/18 10:51:40;;;;;;;6.72;2.03;;;;;;;;;;5046460;28;20123;-70
2022/03/18 10:54:06;;;;;;;7.93;2.47;;;;;;;;;;5063561;28;20528;-69
2022/03/18 10:56:51;;;;;;;7.75;2.38;;;;;;;;;;5061934;28;20045;-69
2022/03/18 10:59:17;;;;;;;8.50;2.40;;;;;;;;;;5063455;28;20040;-69
2022/03/18 11:01:45;;;;;;;8.88;2.50;;;;;;;;;;5055884;28;20118;-69
2022/03/18 11:04:11;;;;;;;8.15;2.20;;;;;;;;;;5043641;28;20041;-69
2022/03/18 11:06:38;;;;;;;10.25;2.75;;;;;;;;;;5047466;28;20080;-69
2022/03/18 11:09:04;;;;;;;8.65;2.42;;;;;;;;;;5063165;28;20044;-69
2022/03/18 11:11:31;;;;;;;8.20;2.22;;;;;;;;;;5062436;28;20040;-69
2022/03/18 11:14:02;;;;;;;11.95;2.40;;;;;;;;;;5046228;28;20044;-70
2022/03/18 11:16:29;;;;;;;6.63;2.10;;;;;;;;;;5061268;28;20044;-69
2022/03/18 11:18:57;;;;;;;8.82;2.30;;;;;;;;;;5063149;28;20040;-69
2022/03/18 11:21:35;;;;;;;8.48;2.10;;;;;;;;;;5061827;28;20045;-69
2022/03/18 11:24:03;;;;;;;9.80;2.47;;;;;;;;;;5046554;28;20109;-69
2022/03/18 11:26:30;;;;;;;8.93;2.22;;;;;;;;;;5061606;28;20055;-68
2022/03/18 11:29:06;;;;;;;6.28;1.80;;;;;;;;;;5063010;28;20048;-69
2022/03/18 11:31:33;;;;;;;7.10;2.17;;;;;;;;;;5045778;28;20048;-69
2022/03/18 11:34:11;;;;;;;11.68;2.45;;;;;;;;;;5061989;28;20529;-70
2022/03/18 11:36:38;;;;;;;7.65;1.90;;;;;;;;;;5061730;28;20549;-69
2022/03/18 11:39:06;;;;;;;7.05;2.08;;;;;;;;;;5063217;28;20094;-70
2022/03/18 11:41:49;;;;;;;7.13;1.80;;;;;;;;;;5061760;28;20040;-69
2022/03/18 11:44:34;;;;;;;7.40;2.00;;;;;;;;;;5046483;28;20090;-69
2022/03/18 11:47:29;;;;;;;6.43;1.90;;;;;;;;;;5061309;28;20052;-68
2022/03/18 11:49:56;;;;;;;8.30;2.22;;;;;;;;;;5028761;28;20084;-70
2022/03/18 11:52:22;;;;;;;9.52;3.05;;;;;;;;;;5061008;28;20053;-69
2022/03/18 11:54:55;;;;;;;16.20;4.03;;;;;;;;;;5064412;28;20037;-69
2022/03/18 11:57:29;;;;;;;14.23;3.73;;;;;;;;;;5040371;28;20920;-69
2022/03/18 11:59:57;;;;;;;11.20;4.45;;;;;;;;;;5034004;28;20177;-69
2022/03/18 12:02:32;;;;;;;14.00;4.60;;;;;;;;;;5054888;28;20049;-70
2022/03/18 12:04:58;;;;;;;16.67;6.10;;;;;;;;;;5049507;28;20133;-70
2022/03/18 12:07:33;;;;;;;15.38;5.60;;;;;;;;;;5053439;28;20052;-69
2022/03/18 12:10:05;;;;;;;15.10;5.70;;;;;;;;;;5050597;28;20036;-69
2022/03/18 12:12:42;;;;;;;14.90;5.10;;;;;;;;;;5053641;28;20582;-70
2022/03/18 12:15:18;;;;;;;14.07;5.07;;;;;;;;;;5025975;28;20069;-69
2022/03/18 12:17:53;;;;;;;12.27;5.07;;;;;;;;;;5055161;28;20063;-70
2022/03/18 12:20:20;;;;;;;17.58;6.25;;;;;;;;;;5062282;28;20055;-70
2022/03/18 12:22:47;;;;;;;19.48;5.55;;;;;;;;;;5060812;28;20048;-71
2022/03/18 12:25:13;;;;;;;14.27;4.82;;;;;;;;;;5061723;28;20043;-70
2022/03/18 12:27:41;;;;;;;14.07;4.65;;;;;;;;;;5060140;28;20572;-69
2022/03/18 12:30:17;;;;;;;12.80;4.50;;;;;;;;;;5062713;28;20048;-70
2022/03/18 12:32:58;;;;;;;11.65;5.13;;;;;;;;;;5059612;28;20419;-69
2022/03/18 12:35:25;;;;;;;12.63;4.90;;;;;;;;;;5061835;28;20056;-69
2022/03/18 12:38:03;;;;;;;13.60;4.38;;;;;;;;;;5059556;28;20668;-69
2022/03/18 12:40:29;;;;;;;13.93;4.90;;;;;;;;;;5060804;28;20500;-70
2022/03/18 12:42:56;;;;;;;13.82;4.60;;;;;;;;;;5059969;28;20047;-71
2022/03/18 12:45:24;;;;;;;12.45;4.40;;;;;;;;;;5064232;28;20040;-70
2022/03/18 12:47:50;;;;;;;12.73;4.63;;;;;;;;;;5064095;28;20056;-70
2022/03/18 12:50:17;;;;;;;14.50;5.05;;;;;;;;;;5051572;28;20120;-70
2022/03/18 12:52:44;;;;;;;19.85;6.22;;;;;;;;;;5058305;28;20087;-69
2022/03/18 12:55:12;;;;;;;18.35;5.75;;;;;;;;;;5064562;28;20040;-69
2022/03/18 12:57:39;;;;;;;17.60;5.35;;;;;;;;;;5063748;28;20533;-71
2022/03/18 13:00:08;;;;;;;17.92;5.53;;;;;;;;;;5065439;28;20036;-70
2022/03/18 13:02:34;;;;;;;23.27;6.20;;;;;;;;;;5055737;28;20049;-70
2022/03/18 13:05:02;;;;;;;22.25;6.05;;;;;;;;;;5034315;28;20051;-71
2022/03/18 13:07:29;;;;;;;19.15;5.97;;;;;;;;;;5040252;28;20390;-71
2022/03/18 13:09:55;;;;;;;17.40;5.07;;;;;;;;;;5065469;28;20052;-70
2022/03/18 13:12:29;;;;;;;26.83;5.60;;;;;;;;;;5063332;28;20113;-70
2022/03/18 13:14:56;;;;;;;;;;;;;;;;;;5053364;28;20429;-70
2022/03/18 13:17:22;;;;;;;22.20;5.38;;;;;;;;;;5056524;28;20425;-70
2022/03/18 13:19:50;;;;;;;15.48;4.07;;;;;;;;;;5065436;28;20075;-71
2022/03/18 13:22:21;;;;;;;12.15;3.97;;;;;;;;;;5064431;28;20048;-71
2022/03/18 13:24:48;;;;;;;11.98;2.40;;;;;;;;;;5065181;28;20059;-70
2022/03/18 13:27:15;;;;;;;15.65;3.60;;;;;;;;;;5064224;28;20045;-70
2022/03/18 13:35:11;;;;;;;14.70;2.90;;;;;;;;;;5065097;28;19916;-70
2022/03/18 13:37:37;;;;;;;13.02;2.50;;;;;;;;;;5047695;28;20037;-70
2022/03/18 13:40:14;;;;;;;15.52;2.97;;;;;;;;;;5048802;28;20700;-70
2022/03/18 13:42:41;;;;;;;14.23;3.03;;;;;;;;;;5063561;28;20127;-70
2022/03/18 13:45:07;;;;;;;11.38;2.20;;;;;;;;;;5065091;28;20061;-70
2022/03/18 13:47:47;;;;;;;12.15;2.65;;;;;;;;;;5047076;28;20048;-70
2022/03/18 13:50:18;;;;;;;10.00;2.63;;;;;;;;;;5035762;28;20046;-71
2022/03/18 13:52:44;;;;;;;14.30;2.45;;;;;;;;;;5031596;28;20628;-70
2022/03/18 13:55:27;;;;;;;11.45;2.83;;;;;;;;;;5047566;28;20043;-70
2022/03/18 13:57:53;;;;;;;12.45;2.70;;;;;;;;;;5048063;28;20036;-70
2022/03/18 14:00:27;;;;;;;13.30;2.65;;;;;;;;;;5044243;28;20033;-71
2022/03/18 14:03:03;;;;;;;9.73;2.65;;;;;;;;;;5048041;28;20040;-66
2022/03/18 14:05:29;;;;;;;12.18;3.38;;;;;;;;;;5043903;28;20747;-66
2022/03/18 14:07:56;;;;;;;15.85;4.30;;;;;;;;;;5059576;28;20040;-66
2022/03/18 14:10:23;;;;;;;10.20;3.65;;;;;;;;;;5064511;28;20522;-66
2022/03/18 14:13:00;;;;;;;13.27;3.85;;;;;;;;;;5062744;28;20521;-66
2022/03/18 14:15:31;;;;;;;13.25;3.65;;;;;;;;;;5064419;28;20044;-66
2022/03/18 14:17:58;;;;;;;16.65;4.70;;;;;;;;;;5061886;28;20201;-66
2022/03/18 14:20:26;;;;;;;13.40;3.85;;;;;;;;;;5064300;28;20623;-66
2022/03/18 14:22:54;;;;;;;15.38;3.88;;;;;;;;;;5062765;28;20037;-66
2022/03/18 14:25:20;;;;;;;14.73;4.30;;;;;;;;;;5064381;28;20060;-66
2022/03/18 14:27:47;;;;;;;13.95;4.03;;;;;;;;;;5062507;28;20056;-66
2022/03/18 14:30:18;;;;;;;12.70;3.90;;;;;;;;;;5064214;28;20056;-66
2022/03/18 14:32:46;;;;;;;21.52;4.25;;;;;;;;;;5062359;28;20040;-66
2022/03/18 14:35:12;;;;;;;19.55;3.95;;;;;;;;;;5063780;28;20123;-66
2022/03/18 14:37:39;;;;;;;11.38;2.83;;;;;;;;;;5046462;28;20055;-66
2022/03/18 14:40:06;;;;;;;17.90;3.70;;;;;;;;;;5064211;28;20044;-65
2022/03/18 14:42:32;;;;;;;18.67;3.70;;;;;;;;;;5062735;28;20050;-67
2022/03/18 14:44:58;;;;;;;18.60;3.70;;;;;;;;;;5047113;28;20127;-66
2022/03/18 14:47:25;;;;;;;16.02;3.65;;;;;;;;;;5061424;28;20045;-66
2022/03/18 14:49:51;;;;;;;17.50;3.55;;;;;;;;;;5046603;28;20045;-66
2022/03/18 14:52:17;;;;;;;16.00;3.35;;;;;;;;;;5061257;28;20062;-66
2022/03/18 14:57:28;;;;;;;15.55;3.38;;;;;;;;;;5062280;28;20041;-66
2022/03/18 14:59:54;;;;;;;98.22;12.23;;;;;;;;;;5047222;28;20119;-66
2022/03/18 15:02:20;;;;;;;75.68;8.18;;;;;;;;;;5061810;28;20052;-66
2022/03/18 15:04:46;;;;;;;62.83;9.02;;;;;;;;;;5063202;28;20040;-66
2022/03/18 15:07:13;;;;;;;58.03;8.18;;;;;;;;;;5061271;28;20048;-67